sensor_id;sensor_type;location;lat;lon;timestamp;P1;durP1;ratioP1;P2;durP2;ratioP2
3307;SDS011;1666;48.898;9.182;2023-09-18T00:00:57;7.65;;;3.60;;
3307;SDS011;1666;48.898;9.182;2023-09-18T00:03:29;4.22;;;3.40;;
3307;SDS011;1666;48.898;9.182;2023-09-18T00:05:59;4.53;;;3.25;;
3307;SDS011;1666;48.898;9.182;2023-09-18T00:08:29;3.55;;;3.00;;
3307;SDS011;1666;48.898;9.182;2023-09-18T00:11:03;9.20;;;3.88;;
3307;SDS011;1666;48.898;9.182;2023-09-18T00:13:33;4.05;;;3.13;;
3307;SDS011;1666;48.898;9.182;2023-09-18T00:16:03;4.00;;;3.10;;
3307;SDS011;1666;48.898;9.182;2023-09-18T00:18:33;5.90;;;3.40;;
3307;SDS011;1666;48.898;9.182;2023-09-18T00:21:03;5.72;;;3.83;;
3307;SDS011;1666;48.898;9.182;2023-09-18T00:23:34;6.95;;;4.32;;
3307;SDS011;1666;48.898;9.182;2023-09-18T00:26:06;4.75;;;3.78;;
3307;SDS011;1666;48.898;9.182;2023-09-18T00:28:37;3.85;;;3.33;;
3307;SDS011;1666;48.898;9.182;2023-09-18T00:31:07;4.45;;;3.22;;
3307;SDS011;1666;48.898;9.182;2023-09-18T00:33:37;3.80;;;3.38;;
3307;SDS011;1666;48.898;9.182;2023-09-18T00:36:07;4.40;;;3.78;;
3307;SDS011;1666;48.898;9.182;2023-09-18T00:38:37;4.88;;;3.67;;
3307;SDS011;1666;48.898;9.182;2023-09-18T00:41:09;3.85;;;3.33;;
3307;SDS011;1666;48.898;9.182;2023-09-18T00:43:39;4.22;;;3.38;;
3307;SDS011;1666;48.898;9.182;2023-09-18T00:46:09;5.05;;;3.03;;
3307;SDS011;1666;48.898;9.182;2023-09-18T00:48:39;3.80;;;3.08;;
3307;SDS011;1666;48.898;9.182;2023-09-18T00:51:09;4.78;;;3.58;;
3307;SDS011;1666;48.898;9.182;2023-09-18T00:53:41;5.32;;;3.85;;
3307;SDS011;1666;48.898;9.182;2023-09-18T00:56:18;3.90;;;3.50;;
3307;SDS011;1666;48.898;9.182;2023-09-18T00:58:49;6.57;;;3.92;;
3307;SDS011;1666;48.898;9.182;2023-09-18T01:01:21;6.57;;;3.58;;
3307;SDS011;1666;48.898;9.182;2023-09-18T01:03:51;4.88;;;3.67;;
3307;SDS011;1666;48.898;9.182;2023-09-18T01:06:24;7.63;;;3.60;;
3307;SDS011;1666;48.898;9.182;2023-09-18T01:08:57;4.18;;;3.53;;
3307;SDS011;1666;48.898;9.182;2023-09-18T01:11:31;8.95;;;4.13;;
3307;SDS011;1666;48.898;9.182;2023-09-18T01:14:09;7.65;;;3.85;;
3307;SDS011;1666;48.898;9.182;2023-09-18T01:16:44;5.18;;;3.45;;
3307;SDS011;1666;48.898;9.182;2023-09-18T01:19:39;7.07;;;3.60;;
3307;SDS011;1666;48.898;9.182;2023-09-18T01:22:12;5.40;;;3.80;;
3307;SDS011;1666;48.898;9.182;2023-09-18T01:24:48;4.45;;;3.22;;
3307;SDS011;1666;48.898;9.182;2023-09-18T01:27:18;5.35;;;3.35;;
3307;SDS011;1666;48.898;9.182;2023-09-18T01:29:48;4.93;;;3.70;;
3307;SDS011;1666;48.898;9.182;2023-09-18T01:32:20;6.00;;;3.95;;
3307;SDS011;1666;48.898;9.182;2023-09-18T01:34:54;5.93;;;4.22;;
3307;SDS011;1666;48.898;9.182;2023-09-18T01:37:27;5.38;;;4.28;;
3307;SDS011;1666;48.898;9.182;2023-09-18T01:40:02;6.60;;;4.72;;
3307;SDS011;1666;48.898;9.182;2023-09-18T01:42:37;6.10;;;4.30;;
3307;SDS011;1666;48.898;9.182;2023-09-18T01:45:08;6.05;;;4.30;;
3307;SDS011;1666;48.898;9.182;2023-09-18T01:47:39;5.97;;;4.28;;
3307;SDS011;1666;48.898;9.182;2023-09-18T01:50:09;5.57;;;4.03;;
3307;SDS011;1666;48.898;9.182;2023-09-18T01:52:39;10.05;;;4.20;;
3307;SDS011;1666;48.898;9.182;2023-09-18T01:55:12;9.32;;;4.70;;
3307;SDS011;1666;48.898;9.182;2023-09-18T01:57:42;5.53;;;3.80;;
3307;SDS011;1666;48.898;9.182;2023-09-18T02:00:13;7.07;;;4.07;;
3307;SDS011;1666;48.898;9.182;2023-09-18T02:02:45;8.50;;;4.25;;
3307;SDS011;1666;48.898;9.182;2023-09-18T02:05:35;8.02;;;4.03;;
3307;SDS011;1666;48.898;9.182;2023-09-18T02:08:05;10.10;;;3.55;;
3307;SDS011;1666;48.898;9.182;2023-09-18T02:10:37;5.82;;;3.33;;
3307;SDS011;1666;48.898;9.182;2023-09-18T02:13:07;5.25;;;3.63;;
3307;SDS011;1666;48.898;9.182;2023-09-18T02:15:37;5.65;;;3.42;;
3307;SDS011;1666;48.898;9.182;2023-09-18T02:18:07;5.95;;;3.17;;
3307;SDS011;1666;48.898;9.182;2023-09-18T02:20:40;7.30;;;3.00;;
3307;SDS011;1666;48.898;9.182;2023-09-18T02:23:14;4.60;;;3.17;;
3307;SDS011;1666;48.898;9.182;2023-09-18T02:25:47;5.50;;;3.30;;
3307;SDS011;1666;48.898;9.182;2023-09-18T02:28:25;4.25;;;2.85;;
3307;SDS011;1666;48.898;9.182;2023-09-18T02:30:54;7.88;;;3.38;;
3307;SDS011;1666;48.898;9.182;2023-09-18T02:33:24;7.70;;;2.67;;
3307;SDS011;1666;48.898;9.182;2023-09-18T02:35:54;6.13;;;2.63;;
3307;SDS011;1666;48.898;9.182;2023-09-18T02:38:25;6.68;;;2.88;;
3307;SDS011;1666;48.898;9.182;2023-09-18T02:40:59;9.77;;;3.00;;
3307;SDS011;1666;48.898;9.182;2023-09-18T02:43:29;6.45;;;2.88;;
3307;SDS011;1666;48.898;9.182;2023-09-18T02:45:59;8.57;;;3.10;;
3307;SDS011;1666;48.898;9.182;2023-09-18T02:48:29;7.32;;;3.20;;
3307;SDS011;1666;48.898;9.182;2023-09-18T02:50:59;7.68;;;3.03;;
3307;SDS011;1666;48.898;9.182;2023-09-18T02:53:29;8.20;;;3.65;;
3307;SDS011;1666;48.898;9.182;2023-09-18T02:56:02;5.63;;;2.90;;
3307;SDS011;1666;48.898;9.182;2023-09-18T02:58:32;17.45;;;5.22;;
3307;SDS011;1666;48.898;9.182;2023-09-18T03:01:02;11.73;;;3.97;;
3307;SDS011;1666;48.898;9.182;2023-09-18T03:03:33;12.60;;;4.32;;
3307;SDS011;1666;48.898;9.182;2023-09-18T03:06:04;14.48;;;4.13;;
3307;SDS011;1666;48.898;9.182;2023-09-18T03:08:34;9.50;;;3.47;;
3307;SDS011;1666;48.898;9.182;2023-09-18T03:11:13;7.10;;;3.40;;
3307;SDS011;1666;48.898;9.182;2023-09-18T03:13:43;6.80;;;3.25;;
3307;SDS011;1666;48.898;9.182;2023-09-18T03:16:14;8.63;;;3.78;;
3307;SDS011;1666;48.898;9.182;2023-09-18T03:18:44;11.15;;;3.53;;
3307;SDS011;1666;48.898;9.182;2023-09-18T03:21:15;10.82;;;3.47;;
3307;SDS011;1666;48.898;9.182;2023-09-18T03:23:45;9.32;;;3.10;;
3307;SDS011;1666;48.898;9.182;2023-09-18T03:26:17;9.43;;;3.15;;
3307;SDS011;1666;48.898;9.182;2023-09-18T03:28:47;9.82;;;3.70;;
3307;SDS011;1666;48.898;9.182;2023-09-18T03:31:17;9.32;;;2.85;;
3307;SDS011;1666;48.898;9.182;2023-09-18T03:33:47;9.90;;;3.47;;
3307;SDS011;1666;48.898;9.182;2023-09-18T03:36:19;12.25;;;3.53;;
3307;SDS011;1666;48.898;9.182;2023-09-18T03:38:50;10.68;;;3.28;;
3307;SDS011;1666;48.898;9.182;2023-09-18T03:41:23;7.40;;;3.65;;
3307;SDS011;1666;48.898;9.182;2023-09-18T03:43:53;7.15;;;3.60;;
3307;SDS011;1666;48.898;9.182;2023-09-18T03:46:23;9.52;;;4.03;;
3307;SDS011;1666;48.898;9.182;2023-09-18T03:48:53;11.00;;;3.90;;
3307;SDS011;1666;48.898;9.182;2023-09-18T03:51:24;7.97;;;3.42;;
3307;SDS011;1666;48.898;9.182;2023-09-18T03:53:54;9.00;;;3.47;;
3307;SDS011;1666;48.898;9.182;2023-09-18T03:56:27;7.03;;;3.65;;
3307;SDS011;1666;48.898;9.182;2023-09-18T03:58:57;12.25;;;3.78;;
3307;SDS011;1666;48.898;9.182;2023-09-18T04:01:27;10.93;;;3.58;;
3307;SDS011;1666;48.898;9.182;2023-09-18T04:03:57;13.88;;;3.78;;
3307;SDS011;1666;48.898;9.182;2023-09-18T04:06:35;10.10;;;3.50;;
3307;SDS011;1666;48.898;9.182;2023-09-18T04:09:07;7.68;;;3.22;;
3307;SDS011;1666;48.898;9.182;2023-09-18T04:11:39;11.98;;;3.60;;
3307;SDS011;1666;48.898;9.182;2023-09-18T04:14:09;7.40;;;3.15;;
3307;SDS011;1666;48.898;9.182;2023-09-18T04:16:39;10.60;;;3.20;;
3307;SDS011;1666;48.898;9.182;2023-09-18T04:19:10;11.43;;;3.15;;
3307;SDS011;1666;48.898;9.182;2023-09-18T04:21:40;8.60;;;3.13;;
3307;SDS011;1666;48.898;9.182;2023-09-18T04:24:10;10.30;;;3.42;;
3307;SDS011;1666;48.898;9.182;2023-09-18T04:26:43;11.15;;;3.55;;
3307;SDS011;1666;48.898;9.182;2023-09-18T04:29:12;9.55;;;3.50;;
3307;SDS011;1666;48.898;9.182;2023-09-18T04:31:42;6.75;;;3.00;;
3307;SDS011;1666;48.898;9.182;2023-09-18T04:34:13;6.40;;;2.97;;
3307;SDS011;1666;48.898;9.182;2023-09-18T04:36:43;8.98;;;3.42;;
3307;SDS011;1666;48.898;9.182;2023-09-18T04:39:13;10.77;;;3.58;;
3307;SDS011;1666;48.898;9.182;2023-09-18T04:41:46;7.50;;;3.60;;
3307;SDS011;1666;48.898;9.182;2023-09-18T04:44:16;7.97;;;3.20;;
3307;SDS011;1666;48.898;9.182;2023-09-18T04:46:45;14.02;;;3.88;;
3307;SDS011;1666;48.898;9.182;2023-09-18T04:49:15;12.30;;;4.22;;
3307;SDS011;1666;48.898;9.182;2023-09-18T04:51:45;11.10;;;4.47;;
3307;SDS011;1666;48.898;9.182;2023-09-18T04:54:15;14.05;;;4.57;;
3307;SDS011;1666;48.898;9.182;2023-09-18T04:56:48;13.25;;;4.20;;
3307;SDS011;1666;48.898;9.182;2023-09-18T04:59:19;10.63;;;4.38;;
3307;SDS011;1666;48.898;9.182;2023-09-18T05:01:49;12.40;;;4.70;;
3307;SDS011;1666;48.898;9.182;2023-09-18T05:04:19;8.88;;;4.18;;
3307;SDS011;1666;48.898;9.182;2023-09-18T05:06:49;6.72;;;3.88;;
3307;SDS011;1666;48.898;9.182;2023-09-18T05:09:19;11.38;;;4.38;;
3307;SDS011;1666;48.898;9.182;2023-09-18T05:11:51;9.30;;;4.38;;
3307;SDS011;1666;48.898;9.182;2023-09-18T05:14:21;13.35;;;4.88;;
3307;SDS011;1666;48.898;9.182;2023-09-18T05:16:51;11.98;;;4.40;;
3307;SDS011;1666;48.898;9.182;2023-09-18T05:19:21;7.70;;;4.05;;
3307;SDS011;1666;48.898;9.182;2023-09-18T05:21:51;11.50;;;4.38;;
3307;SDS011;1666;48.898;9.182;2023-09-18T05:24:21;8.60;;;3.97;;
3307;SDS011;1666;48.898;9.182;2023-09-18T05:26:56;10.95;;;3.83;;
3307;SDS011;1666;48.898;9.182;2023-09-18T05:29:26;12.88;;;3.95;;
3307;SDS011;1666;48.898;9.182;2023-09-18T05:31:56;8.88;;;4.03;;
3307;SDS011;1666;48.898;9.182;2023-09-18T05:34:26;7.25;;;3.63;;
3307;SDS011;1666;48.898;9.182;2023-09-18T05:36:56;14.07;;;4.20;;
3307;SDS011;1666;48.898;9.182;2023-09-18T05:39:26;10.07;;;4.45;;
3307;SDS011;1666;48.898;9.182;2023-09-18T05:41:58;12.27;;;4.82;;
3307;SDS011;1666;48.898;9.182;2023-09-18T05:44:28;9.32;;;4.55;;
3307;SDS011;1666;48.898;9.182;2023-09-18T05:46:58;10.23;;;4.22;;
3307;SDS011;1666;48.898;9.182;2023-09-18T05:49:30;7.85;;;3.95;;
3307;SDS011;1666;48.898;9.182;2023-09-18T05:52:01;8.80;;;4.13;;
3307;SDS011;1666;48.898;9.182;2023-09-18T05:54:31;11.30;;;4.43;;
3307;SDS011;1666;48.898;9.182;2023-09-18T05:57:05;10.68;;;4.28;;
3307;SDS011;1666;48.898;9.182;2023-09-18T05:59:35;5.68;;;3.28;;
3307;SDS011;1666;48.898;9.182;2023-09-18T06:02:07;7.70;;;3.67;;
3307;SDS011;1666;48.898;9.182;2023-09-18T06:04:36;11.23;;;4.28;;
3307;SDS011;1666;48.898;9.182;2023-09-18T06:07:07;8.95;;;4.53;;
3307;SDS011;1666;48.898;9.182;2023-09-18T06:09:36;11.02;;;3.83;;
3307;SDS011;1666;48.898;9.182;2023-09-18T06:12:10;16.50;;;4.65;;
3307;SDS011;1666;48.898;9.182;2023-09-18T06:14:40;11.80;;;3.93;;
3307;SDS011;1666;48.898;9.182;2023-09-18T06:17:11;9.90;;;4.43;;
3307;SDS011;1666;48.898;9.182;2023-09-18T06:19:41;7.57;;;3.95;;
3307;SDS011;1666;48.898;9.182;2023-09-18T06:22:12;11.85;;;4.03;;
3307;SDS011;1666;48.898;9.182;2023-09-18T06:24:42;8.93;;;3.40;;
3307;SDS011;1666;48.898;9.182;2023-09-18T06:27:14;7.50;;;3.22;;
3307;SDS011;1666;48.898;9.182;2023-09-18T06:29:45;9.27;;;3.78;;
3307;SDS011;1666;48.898;9.182;2023-09-18T06:32:15;13.38;;;3.67;;
3307;SDS011;1666;48.898;9.182;2023-09-18T06:34:45;9.32;;;3.28;;
3307;SDS011;1666;48.898;9.182;2023-09-18T06:37:15;8.00;;;3.15;;
3307;SDS011;1666;48.898;9.182;2023-09-18T06:39:45;11.43;;;3.30;;
3307;SDS011;1666;48.898;9.182;2023-09-18T06:42:17;10.93;;;3.83;;
3307;SDS011;1666;48.898;9.182;2023-09-18T06:44:48;11.18;;;3.70;;
3307;SDS011;1666;48.898;9.182;2023-09-18T06:47:17;11.02;;;3.15;;
3307;SDS011;1666;48.898;9.182;2023-09-18T06:49:47;9.27;;;3.08;;
3307;SDS011;1666;48.898;9.182;2023-09-18T06:52:18;10.98;;;4.07;;
3307;SDS011;1666;48.898;9.182;2023-09-18T06:54:48;11.20;;;3.60;;
3307;SDS011;1666;48.898;9.182;2023-09-18T06:57:21;6.97;;;3.33;;
3307;SDS011;1666;48.898;9.182;2023-09-18T06:59:51;8.02;;;3.40;;
3307;SDS011;1666;48.898;9.182;2023-09-18T07:02:21;11.48;;;3.70;;
3307;SDS011;1666;48.898;9.182;2023-09-18T07:04:52;7.93;;;3.28;;
3307;SDS011;1666;48.898;9.182;2023-09-18T07:07:22;8.75;;;3.50;;
3307;SDS011;1666;48.898;9.182;2023-09-18T07:09:53;6.63;;;3.25;;
3307;SDS011;1666;48.898;9.182;2023-09-18T07:12:29;6.53;;;3.22;;
3307;SDS011;1666;48.898;9.182;2023-09-18T07:14:59;7.28;;;3.10;;
3307;SDS011;1666;48.898;9.182;2023-09-18T07:17:32;8.27;;;3.63;;
3307;SDS011;1666;48.898;9.182;2023-09-18T07:20:03;10.82;;;3.08;;
3307;SDS011;1666;48.898;9.182;2023-09-18T07:22:45;11.95;;;3.95;;
3307;SDS011;1666;48.898;9.182;2023-09-18T07:25:17;8.20;;;3.58;;
3307;SDS011;1666;48.898;9.182;2023-09-18T07:27:49;7.30;;;3.20;;
3307;SDS011;1666;48.898;9.182;2023-09-18T07:30:19;7.57;;;2.90;;
3307;SDS011;1666;48.898;9.182;2023-09-18T07:32:54;5.88;;;2.60;;
3307;SDS011;1666;48.898;9.182;2023-09-18T07:35:25;8.60;;;2.40;;
3307;SDS011;1666;48.898;9.182;2023-09-18T07:37:55;6.13;;;2.42;;
3307;SDS011;1666;48.898;9.182;2023-09-18T07:40:25;7.63;;;2.40;;
3307;SDS011;1666;48.898;9.182;2023-09-18T07:42:58;7.40;;;1.70;;
3307;SDS011;1666;48.898;9.182;2023-09-18T07:45:28;5.38;;;1.95;;
3307;SDS011;1666;48.898;9.182;2023-09-18T07:47:58;5.93;;;1.80;;
3307;SDS011;1666;48.898;9.182;2023-09-18T07:50:28;8.00;;;2.47;;
3307;SDS011;1666;48.898;9.182;2023-09-18T07:52:59;6.43;;;1.90;;
3307;SDS011;1666;48.898;9.182;2023-09-18T07:55:29;3.75;;;2.15;;
3307;SDS011;1666;48.898;9.182;2023-09-18T07:58:02;9.10;;;1.70;;
3307;SDS011;1666;48.898;9.182;2023-09-18T08:00:33;4.03;;;1.80;;
3307;SDS011;1666;48.898;9.182;2023-09-18T08:03:03;6.00;;;1.42;;
3307;SDS011;1666;48.898;9.182;2023-09-18T08:05:33;6.03;;;1.95;;
3307;SDS011;1666;48.898;9.182;2023-09-18T08:08:04;6.93;;;1.70;;
3307;SDS011;1666;48.898;9.182;2023-09-18T08:10:36;6.57;;;1.60;;
3307;SDS011;1666;48.898;9.182;2023-09-18T08:13:10;6.07;;;1.90;;
3307;SDS011;1666;48.898;9.182;2023-09-18T08:15:40;5.93;;;1.95;;
3307;SDS011;1666;48.898;9.182;2023-09-18T08:18:10;4.18;;;1.13;;
3307;SDS011;1666;48.898;9.182;2023-09-18T08:20:41;5.18;;;1.90;;
3307;SDS011;1666;48.898;9.182;2023-09-18T08:23:11;3.25;;;1.63;;
3307;SDS011;1666;48.898;9.182;2023-09-18T08:25:42;3.30;;;1.58;;
3307;SDS011;1666;48.898;9.182;2023-09-18T08:28:16;4.75;;;1.60;;
3307;SDS011;1666;48.898;9.182;2023-09-18T08:30:46;6.53;;;1.63;;
3307;SDS011;1666;48.898;9.182;2023-09-18T08:33:16;4.80;;;1.50;;
3307;SDS011;1666;48.898;9.182;2023-09-18T08:35:47;5.70;;;2.80;;
3307;SDS011;1666;48.898;9.182;2023-09-18T08:38:17;4.97;;;1.60;;
3307;SDS011;1666;48.898;9.182;2023-09-18T08:40:47;2.65;;;1.02;;
3307;SDS011;1666;48.898;9.182;2023-09-18T08:43:22;2.97;;;1.27;;
3307;SDS011;1666;48.898;9.182;2023-09-18T08:45:53;5.03;;;1.30;;
3307;SDS011;1666;48.898;9.182;2023-09-18T08:48:28;3.92;;;1.65;;
3307;SDS011;1666;48.898;9.182;2023-09-18T08:51:02;2.20;;;1.00;;
3307;SDS011;1666;48.898;9.182;2023-09-18T08:53:33;4.20;;;0.90;;
3307;SDS011;1666;48.898;9.182;2023-09-18T08:56:05;1.88;;;0.90;;
3307;SDS011;1666;48.898;9.182;2023-09-18T09:01:12;3.17;;;0.93;;
3307;SDS011;1666;48.898;9.182;2023-09-18T09:03:42;3.60;;;1.10;;
3307;SDS011;1666;48.898;9.182;2023-09-18T09:06:13;2.38;;;0.98;;
3307;SDS011;1666;48.898;9.182;2023-09-18T09:08:43;4.90;;;1.00;;
3307;SDS011;1666;48.898;9.182;2023-09-18T09:11:13;3.90;;;0.95;;
3307;SDS011;1666;48.898;9.182;2023-09-18T09:13:46;3.60;;;1.10;;
3307;SDS011;1666;48.898;9.182;2023-09-18T09:16:16;2.42;;;0.95;;
3307;SDS011;1666;48.898;9.182;2023-09-18T09:18:47;6.00;;;1.30;;
3307;SDS011;1666;48.898;9.182;2023-09-18T09:21:20;5.88;;;1.52;;
3307;SDS011;1666;48.898;9.182;2023-09-18T09:23:51;3.05;;;1.20;;
3307;SDS011;1666;48.898;9.182;2023-09-18T09:26:22;3.75;;;1.50;;
3307;SDS011;1666;48.898;9.182;2023-09-18T09:28:55;4.25;;;1.40;;
3307;SDS011;1666;48.898;9.182;2023-09-18T09:31:25;5.10;;;1.70;;
3307;SDS011;1666;48.898;9.182;2023-09-18T09:33:57;9.45;;;1.40;;
3307;SDS011;1666;48.898;9.182;2023-09-18T09:36:31;3.53;;;1.48;;
3307;SDS011;1666;48.898;9.182;2023-09-18T09:39:02;3.78;;;1.52;;
3307;SDS011;1666;48.898;9.182;2023-09-18T09:41:33;5.22;;;1.88;;
3307;SDS011;1666;48.898;9.182;2023-09-18T09:44:07;3.25;;;1.63;;
3307;SDS011;1666;48.898;9.182;2023-09-18T09:46:38;3.78;;;1.33;;
3307;SDS011;1666;48.898;9.182;2023-09-18T09:49:15;4.22;;;1.60;;
3307;SDS011;1666;48.898;9.182;2023-09-18T09:51:46;3.72;;;1.73;;
3307;SDS011;1666;48.898;9.182;2023-09-18T09:54:18;4.30;;;1.67;;
3307;SDS011;1666;48.898;9.182;2023-09-18T09:57:07;5.47;;;1.52;;
3307;SDS011;1666;48.898;9.182;2023-09-18T09:59:40;4.90;;;2.00;;
3307;SDS011;1666;48.898;9.182;2023-09-18T10:02:11;4.63;;;1.80;;
3307;SDS011;1666;48.898;9.182;2023-09-18T10:04:49;8.88;;;3.63;;
3307;SDS011;1666;48.898;9.182;2023-09-18T10:07:19;3.72;;;1.73;;
3307;SDS011;1666;48.898;9.182;2023-09-18T10:09:50;3.22;;;1.33;;
3307;SDS011;1666;48.898;9.182;2023-09-18T10:12:20;5.35;;;2.15;;
3307;SDS011;1666;48.898;9.182;2023-09-18T10:14:55;4.40;;;1.75;;
3307;SDS011;1666;48.898;9.182;2023-09-18T10:17:29;4.53;;;2.08;;
3307;SDS011;1666;48.898;9.182;2023-09-18T10:20:08;3.88;;;1.58;;
3307;SDS011;1666;48.898;9.182;2023-09-18T10:22:44;5.15;;;1.90;;
3307;SDS011;1666;48.898;9.182;2023-09-18T10:25:19;4.22;;;2.10;;
3307;SDS011;1666;48.898;9.182;2023-09-18T10:27:51;3.72;;;1.50;;
3307;SDS011;1666;48.898;9.182;2023-09-18T10:30:32;3.92;;;1.75;;
3307;SDS011;1666;48.898;9.182;2023-09-18T10:33:04;4.28;;;2.10;;
3307;SDS011;1666;48.898;9.182;2023-09-18T10:35:35;4.50;;;1.70;;
3307;SDS011;1666;48.898;9.182;2023-09-18T10:38:06;4.47;;;1.88;;
3307;SDS011;1666;48.898;9.182;2023-09-18T10:40:37;6.22;;;2.40;;
3307;SDS011;1666;48.898;9.182;2023-09-18T10:43:09;3.53;;;2.00;;
3307;SDS011;1666;48.898;9.182;2023-09-18T10:45:45;3.92;;;2.17;;
3307;SDS011;1666;48.898;9.182;2023-09-18T10:48:18;4.53;;;2.05;;
3307;SDS011;1666;48.898;9.182;2023-09-18T10:50:49;4.53;;;2.20;;
3307;SDS011;1666;48.898;9.182;2023-09-18T10:53:20;3.97;;;2.08;;
3307;SDS011;1666;48.898;9.182;2023-09-18T10:55:50;5.07;;;2.63;;
3307;SDS011;1666;48.898;9.182;2023-09-18T10:58:24;6.57;;;2.50;;
3307;SDS011;1666;48.898;9.182;2023-09-18T11:00:57;9.20;;;3.90;;
3307;SDS011;1666;48.898;9.182;2023-09-18T11:03:29;4.93;;;3.20;;
3307;SDS011;1666;48.898;9.182;2023-09-18T11:06:03;4.60;;;2.70;;
3307;SDS011;1666;48.898;9.182;2023-09-18T11:08:42;5.78;;;2.50;;
3307;SDS011;1666;48.898;9.182;2023-09-18T11:11:13;5.40;;;2.33;;
3307;SDS011;1666;48.898;9.182;2023-09-18T11:13:48;5.63;;;2.47;;
3307;SDS011;1666;48.898;9.182;2023-09-18T11:16:36;6.28;;;2.42;;
3307;SDS011;1666;48.898;9.182;2023-09-18T11:19:08;3.95;;;2.28;;
3307;SDS011;1666;48.898;9.182;2023-09-18T11:21:40;9.18;;;5.95;;
3307;SDS011;1666;48.898;9.182;2023-09-18T11:24:17;3.88;;;1.80;;
3307;SDS011;1666;48.898;9.182;2023-09-18T11:26:50;3.47;;;2.13;;
3307;SDS011;1666;48.898;9.182;2023-09-18T11:29:21;4.90;;;2.35;;
3307;SDS011;1666;48.898;9.182;2023-09-18T11:31:56;5.22;;;2.00;;
3307;SDS011;1666;48.898;9.182;2023-09-18T11:34:32;5.70;;;1.92;;
3307;SDS011;1666;48.898;9.182;2023-09-18T11:37:02;4.15;;;1.92;;
3307;SDS011;1666;48.898;9.182;2023-09-18T11:39:49;4.82;;;1.95;;
3307;SDS011;1666;48.898;9.182;2023-09-18T11:42:20;5.90;;;1.95;;
3307;SDS011;1666;48.898;9.182;2023-09-18T11:44:53;5.13;;;1.60;;
3307;SDS011;1666;48.898;9.182;2023-09-18T11:47:27;4.35;;;2.13;;
3307;SDS011;1666;48.898;9.182;2023-09-18T11:52:33;5.30;;;1.83;;
3307;SDS011;1666;48.898;9.182;2023-09-18T11:55:04;4.43;;;1.40;;
3307;SDS011;1666;48.898;9.182;2023-09-18T11:57:36;4.10;;;1.73;;
3307;SDS011;1666;48.898;9.182;2023-09-18T12:00:17;1.88;;;1.40;;
3307;SDS011;1666;48.898;9.182;2023-09-18T12:02:52;3.85;;;1.38;;
3307;SDS011;1666;48.898;9.182;2023-09-18T12:05:24;3.63;;;1.42;;
3307;SDS011;1666;48.898;9.182;2023-09-18T12:07:55;3.17;;;1.50;;
3307;SDS011;1666;48.898;9.182;2023-09-18T12:10:25;2.97;;;1.50;;
3307;SDS011;1666;48.898;9.182;2023-09-18T12:12:58;2.10;;;1.25;;
3307;SDS011;1666;48.898;9.182;2023-09-18T12:15:30;3.55;;;1.40;;
3307;SDS011;1666;48.898;9.182;2023-09-18T12:18:13;12.00;;;8.15;;
3307;SDS011;1666;48.898;9.182;2023-09-18T12:20:45;2.25;;;1.30;;
3307;SDS011;1666;48.898;9.182;2023-09-18T12:23:16;3.67;;;1.10;;
3307;SDS011;1666;48.898;9.182;2023-09-18T12:25:47;2.75;;;1.20;;
3307;SDS011;1666;48.898;9.182;2023-09-18T12:28:23;3.58;;;1.33;;
3307;SDS011;1666;48.898;9.182;2023-09-18T12:30:57;2.67;;;1.40;;
3307;SDS011;1666;48.898;9.182;2023-09-18T12:33:36;2.63;;;1.63;;
3307;SDS011;1666;48.898;9.182;2023-09-18T12:36:07;6.28;;;2.33;;
3307;SDS011;1666;48.898;9.182;2023-09-18T12:38:38;8.15;;;3.50;;
3307;SDS011;1666;48.898;9.182;2023-09-18T12:41:10;3.72;;;1.75;;
3307;SDS011;1666;48.898;9.182;2023-09-18T12:43:41;3.33;;;1.75;;
3307;SDS011;1666;48.898;9.182;2023-09-18T12:46:12;4.13;;;1.30;;
3307;SDS011;1666;48.898;9.182;2023-09-18T12:48:45;3.38;;;1.40;;
3307;SDS011;1666;48.898;9.182;2023-09-18T12:51:15;5.15;;;1.58;;
3307;SDS011;1666;48.898;9.182;2023-09-18T12:56:39;5.83;;;1.80;;
3307;SDS011;1666;48.898;9.182;2023-09-18T12:59:10;3.25;;;1.38;;
3307;SDS011;1666;48.898;9.182;2023-09-18T13:01:46;3.00;;;1.42;;
3307;SDS011;1666;48.898;9.182;2023-09-18T13:04:19;2.22;;;1.40;;
3307;SDS011;1666;48.898;9.182;2023-09-18T13:07:02;3.75;;;1.50;;
3307;SDS011;1666;48.898;9.182;2023-09-18T13:09:33;2.72;;;1.38;;
3307;SDS011;1666;48.898;9.182;2023-09-18T13:12:04;3.33;;;1.15;;
3307;SDS011;1666;48.898;9.182;2023-09-18T13:17:27;3.65;;;1.83;;
3307;SDS011;1666;48.898;9.182;2023-09-18T13:20:00;4.82;;;2.05;;
3307;SDS011;1666;48.898;9.182;2023-09-18T13:22:38;3.97;;;1.80;;
3307;SDS011;1666;48.898;9.182;2023-09-18T13:25:09;3.35;;;1.33;;
3307;SDS011;1666;48.898;9.182;2023-09-18T13:27:40;1.77;;;1.50;;
3307;SDS011;1666;48.898;9.182;2023-09-18T13:30:10;1.98;;;1.00;;
3307;SDS011;1666;48.898;9.182;2023-09-18T13:32:43;2.53;;;1.10;;
3307;SDS011;1666;48.898;9.182;2023-09-18T13:35:17;3.08;;;1.05;;
3307;SDS011;1666;48.898;9.182;2023-09-18T13:37:48;2.65;;;1.00;;
3307;SDS011;1666;48.898;9.182;2023-09-18T13:40:18;2.90;;;1.20;;
3307;SDS011;1666;48.898;9.182;2023-09-18T13:42:48;3.80;;;1.05;;
3307;SDS011;1666;48.898;9.182;2023-09-18T13:45:19;2.05;;;1.02;;
3307;SDS011;1666;48.898;9.182;2023-09-18T13:47:49;1.98;;;1.15;;
3307;SDS011;1666;48.898;9.182;2023-09-18T13:50:21;1.92;;;1.10;;
3307;SDS011;1666;48.898;9.182;2023-09-18T13:52:51;1.85;;;1.00;;
3307;SDS011;1666;48.898;9.182;2023-09-18T13:55:21;2.45;;;1.17;;
3307;SDS011;1666;48.898;9.182;2023-09-18T13:57:51;2.70;;;0.90;;
3307;SDS011;1666;48.898;9.182;2023-09-18T14:00:21;1.75;;;1.10;;
3307;SDS011;1666;48.898;9.182;2023-09-18T14:02:53;3.42;;;1.00;;
3307;SDS011;1666;48.898;9.182;2023-09-18T14:05:26;1.73;;;0.90;;
3307;SDS011;1666;48.898;9.182;2023-09-18T14:07:56;2.92;;;1.02;;
3307;SDS011;1666;48.898;9.182;2023-09-18T14:10:27;3.22;;;1.23;;
3307;SDS011;1666;48.898;9.182;2023-09-18T14:12:57;3.72;;;1.20;;
3307;SDS011;1666;48.898;9.182;2023-09-18T14:15:27;2.08;;;1.00;;
3307;SDS011;1666;48.898;9.182;2023-09-18T14:17:57;3.47;;;1.17;;
3307;SDS011;1666;48.898;9.182;2023-09-18T14:20:30;2.10;;;1.00;;
3307;SDS011;1666;48.898;9.182;2023-09-18T14:23:00;2.88;;;1.20;;
3307;SDS011;1666;48.898;9.182;2023-09-18T14:25:30;3.45;;;1.00;;
3307;SDS011;1666;48.898;9.182;2023-09-18T14:28:00;3.47;;;1.10;;
3307;SDS011;1666;48.898;9.182;2023-09-18T14:30:30;2.92;;;1.30;;
3307;SDS011;1666;48.898;9.182;2023-09-18T14:33:00;5.45;;;1.20;;
3307;SDS011;1666;48.898;9.182;2023-09-18T14:35:32;5.90;;;3.33;;
3307;SDS011;1666;48.898;9.182;2023-09-18T14:38:03;12.88;;;11.10;;
3307;SDS011;1666;48.898;9.182;2023-09-18T14:40:33;2.33;;;1.38;;
3307;SDS011;1666;48.898;9.182;2023-09-18T14:43:03;3.17;;;1.15;;
3307;SDS011;1666;48.898;9.182;2023-09-18T14:45:34;1.85;;;1.02;;
3307;SDS011;1666;48.898;9.182;2023-09-18T14:48:05;1.05;;;0.90;;
3307;SDS011;1666;48.898;9.182;2023-09-18T14:50:38;2.03;;;0.80;;
3307;SDS011;1666;48.898;9.182;2023-09-18T14:53:10;2.28;;;1.00;;
3307;SDS011;1666;48.898;9.182;2023-09-18T14:55:40;1.88;;;0.90;;
3307;SDS011;1666;48.898;9.182;2023-09-18T14:58:10;1.30;;;1.08;;
3307;SDS011;1666;48.898;9.182;2023-09-18T15:00:40;1.60;;;0.90;;
3307;SDS011;1666;48.898;9.182;2023-09-18T15:03:26;1.98;;;0.80;;
3307;SDS011;1666;48.898;9.182;2023-09-18T15:05:59;1.48;;;0.93;;
3307;SDS011;1666;48.898;9.182;2023-09-18T15:08:29;5.90;;;1.20;;
3307;SDS011;1666;48.898;9.182;2023-09-18T15:10:59;2.05;;;1.00;;
3307;SDS011;1666;48.898;9.182;2023-09-18T15:13:30;3.30;;;1.10;;
3307;SDS011;1666;48.898;9.182;2023-09-18T15:16:01;4.03;;;3.13;;
3307;SDS011;1666;48.898;9.182;2023-09-18T15:18:32;3.05;;;1.50;;
3307;SDS011;1666;48.898;9.182;2023-09-18T15:21:05;2.67;;;1.15;;
3307;SDS011;1666;48.898;9.182;2023-09-18T15:23:36;2.45;;;1.20;;
3307;SDS011;1666;48.898;9.182;2023-09-18T15:26:07;2.63;;;2.08;;
3307;SDS011;1666;48.898;9.182;2023-09-18T15:28:37;2.58;;;1.00;;
3307;SDS011;1666;48.898;9.182;2023-09-18T15:31:07;3.30;;;1.40;;
3307;SDS011;1666;48.898;9.182;2023-09-18T15:33:37;4.18;;;1.00;;
3307;SDS011;1666;48.898;9.182;2023-09-18T15:36:10;2.92;;;1.15;;
3307;SDS011;1666;48.898;9.182;2023-09-18T15:38:40;2.47;;;1.10;;
3307;SDS011;1666;48.898;9.182;2023-09-18T15:41:10;2.88;;;0.90;;
3307;SDS011;1666;48.898;9.182;2023-09-18T15:43:41;4.35;;;1.10;;
3307;SDS011;1666;48.898;9.182;2023-09-18T15:46:11;3.63;;;0.90;;
3307;SDS011;1666;48.898;9.182;2023-09-18T15:48:44;6.07;;;1.33;;
3307;SDS011;1666;48.898;9.182;2023-09-18T15:51:18;2.60;;;1.00;;